Time;durP1;ratioP1;P1;durP2;ratioP2;P2;SDS_P1;SDS_P2;PMS_P1;PMS_P2;Temp;Humidity;BMP_temperature;BMP_pressure;BME280_temperature;BME280_humidity;BME280_pressure;Samples;Min_cycle;Max_cycle;Signal;HPM_P1;HPM_P2
2023/10/23 00:01:38;;;;;;;;;;;12.80;99.80;;;;;;5114979;27;20006;-70
2023/10/23 00:04:07;;;;;;;;;;;12.80;99.80;;;;;;5124744;27;19908;-70
2023/10/23 00:06:32;;;;;;;;;;;12.80;99.70;;;;;;5124888;27;20424;-70
2023/10/23 00:08:58;;;;;;;;;;;12.80;99.80;;;;;;5114843;27;19908;-70
2023/10/23 00:11:25;;;;;;;;;;;12.80;99.80;;;;;;5116020;27;19930;-70
2023/10/23 00:13:50;;;;;;;;;;;12.80;99.80;;;;;;5116268;27;19907;-70
2023/10/23 00:16:16;;;;;;;;;;;12.80;99.80;;;;;;5116505;27;20287;-70
2023/10/23 00:18:41;;;;;;;;;;;12.80;99.80;;;;;;5127716;27;19919;-70
2023/10/23 00:21:08;;;;;;;;;;;12.80;99.80;;;;;;5129679;27;20026;-70
2023/10/23 00:23:33;;;;;;;;;;;12.80;99.80;;;;;;5118189;27;19974;-70
2023/10/23 00:25:59;;;;;;;;;;;12.80;99.80;;;;;;5122605;27;20395;-70
2023/10/23 00:28:24;;;;;;;;;;;12.80;99.80;;;;;;5115983;27;19987;-70
2023/10/23 00:30:50;;;;;;;;;;;12.80;99.80;;;;;;5114371;27;19915;-70
2023/10/23 00:33:15;;;;;;;;;;;12.80;99.80;;;;;;5116267;27;20332;-70
2023/10/23 00:35:41;;;;;;;;;;;12.70;99.70;;;;;;5115390;27;19918;-70
2023/10/23 00:38:06;;;;;;;;;;;12.80;99.80;;;;;;5116272;27;19916;-70
2023/10/23 00:40:32;;;;;;;;;;;12.80;99.80;;;;;;5115811;27;19985;-70
2023/10/23 00:42:57;;;;;;;;;;;12.80;99.80;;;;;;5116023;27;20032;-70
2023/10/23 00:45:23;;;;;;;;;;;12.70;99.80;;;;;;5114377;27;19935;-70
2023/10/23 00:47:48;;;;;;;;;;;12.70;99.80;;;;;;5118431;27;19912;-70
2023/10/23 00:50:14;;;;;;;;;;;12.80;99.80;;;;;;5116040;27;19964;-70
2023/10/23 00:52:40;;;;;;;;;;;12.70;99.80;;;;;;5114252;27;19915;-70
2023/10/23 00:55:06;;;;;;;;;;;12.70;99.80;;;;;;5111193;28;19915;-70
2023/10/23 00:57:31;;;;;;;;;;;12.70;99.80;;;;;;5120812;27;19907;-70
2023/10/23 00:59:57;;;;;;;;;;;12.70;99.80;;;;;;5112267;28;19941;-70
2023/10/23 01:02:23;;;;;;;;;;;12.70;99.90;;;;;;5110766;28;19999;-70
2023/10/23 01:04:48;;;;;;;;;;;12.70;99.80;;;;;;5111917;28;19912;-70
2023/10/23 01:07:14;;;;;;;;;;;12.70;99.90;;;;;;5112250;28;19934;-70
2023/10/23 01:09:39;;;;;;;;;;;12.70;99.90;;;;;;5120659;27;20234;-70
2023/10/23 01:12:05;;;;;;;;;;;12.70;99.90;;;;;;5117591;27;19915;-70
2023/10/23 01:14:31;;;;;;;;;;;12.70;99.90;;;;;;5115758;27;19962;-70
2023/10/23 01:16:56;;;;;;;;;;;12.70;99.90;;;;;;5119074;27;20030;-70
2023/10/23 01:19:22;;;;;;;;;;;12.70;99.90;;;;;;5111768;27;19916;-70
2023/10/23 01:21:47;;;;;;;;;;;12.70;99.90;;;;;;5112270;28;19908;-70
2023/10/23 01:24:14;;;;;;;;;;;12.70;99.90;;;;;;5110795;28;20321;-70
2023/10/23 01:26:39;;;;;;;;;;;12.60;99.90;;;;;;5112038;28;20388;-70
2023/10/23 01:29:05;;;;;;;;;;;12.70;99.90;;;;;;5111870;28;19918;-70
2023/10/23 01:31:31;;;;;;;;;;;12.60;99.90;;;;;;5111925;28;19998;-70
2023/10/23 01:33:56;;;;;;;;;;;12.60;99.90;;;;;;5105087;28;19961;-70
2023/10/23 01:36:22;;;;;;;;;;;12.60;99.90;;;;;;5112540;27;19919;-70
2023/10/23 01:38:47;;;;;;;;;;;12.60;99.90;;;;;;5120029;27;19908;-70
2023/10/23 01:41:14;;;;;;;;;;;12.60;99.90;;;;;;5111747;28;19969;-70
2023/10/23 01:43:39;;;;;;;;;;;12.60;99.90;;;;;;5111741;28;19922;-70
2023/10/23 01:46:05;;;;;;;;;;;12.60;99.90;;;;;;5111937;28;19995;-70
2023/10/23 01:48:30;;;;;;;;;;;12.50;99.90;;;;;;5110066;28;20256;-70
2023/10/23 01:50:59;;;;;;;;;;;12.50;99.90;;;;;;5110525;28;19926;-70
2023/10/23 01:53:25;;;;;;;;;;;12.50;99.90;;;;;;5116038;27;20349;-70
2023/10/23 01:55:50;;;;;;;;;;;12.50;99.90;;;;;;5111802;28;19923;-70
2023/10/23 01:58:16;;;;;;;;;;;12.50;99.90;;;;;;5110569;28;19966;-70
2023/10/23 02:00:41;;;;;;;;;;;12.50;99.90;;;;;;5109282;28;20312;-70
2023/10/23 02:03:07;;;;;;;;;;;12.50;99.90;;;;;;5109198;28;19918;-70
2023/10/23 02:05:33;;;;;;;;;;;12.40;99.90;;;;;;5109873;27;19912;-70
2023/10/23 02:07:58;;;;;;;;;;;12.40;99.90;;;;;;5115469;27;19934;-70
2023/10/23 02:10:24;;;;;;;;;;;12.40;99.90;;;;;;5113112;27;19912;-70
2023/10/23 02:12:49;;;;;;;;;;;12.40;99.90;;;;;;5116348;27;19938;-71
2023/10/23 02:15:16;;;;;;;;;;;12.30;99.90;;;;;;5110533;28;19914;-71
2023/10/23 02:17:42;;;;;;;;;;;12.30;99.90;;;;;;5109910;28;20027;-71
2023/10/23 02:20:08;;;;;;;;;;;12.30;99.90;;;;;;5110244;28;20317;-71
2023/10/23 02:22:35;;;;;;;;;;;12.30;99.90;;;;;;5111154;28;20356;-71
2023/10/23 02:25:01;;;;;;;;;;;12.30;99.90;;;;;;5110178;28;19915;-71
2023/10/23 02:27:26;;;;;;;;;;;12.20;99.90;;;;;;5110551;28;19916;-71
2023/10/23 02:29:52;;;;;;;;;;;12.20;99.90;;;;;;5110955;28;19915;-71
2023/10/23 02:32:17;;;;;;;;;;;12.30;99.90;;;;;;5111099;28;19912;-71
2023/10/23 02:34:43;;;;;;;;;;;12.20;99.90;;;;;;5109212;28;19915;-71
2023/10/23 02:37:08;;;;;;;;;;;12.20;99.90;;;;;;5110954;28;19908;-71
2023/10/23 02:39:34;;;;;;;;;;;12.20;99.90;;;;;;5109238;28;19911;-71
2023/10/23 02:42:00;;;;;;;;;;;12.20;99.90;;;;;;5111057;28;20372;-71
2023/10/23 02:44:25;;;;;;;;;;;12.10;99.90;;;;;;5112240;27;20377;-71
2023/10/23 02:46:51;;;;;;;;;;;12.10;99.90;;;;;;5110781;28;20437;-71
2023/10/23 02:49:16;;;;;;;;;;;12.20;99.90;;;;;;5110812;28;19950;-71
2023/10/23 02:51:42;;;;;;;;;;;12.10;99.90;;;;;;5109252;28;19958;-71
2023/10/23 02:54:08;;;;;;;;;;;12.10;99.90;;;;;;5106394;27;19908;-71
2023/10/23 02:56:34;;;;;;;;;;;12.10;99.90;;;;;;5110480;28;19914;-71
2023/10/23 02:58:59;;;;;;;;;;;12.10;99.90;;;;;;5110574;28;19919;-71
2023/10/23 03:01:25;;;;;;;;;;;12.10;99.90;;;;;;5110549;28;19947;-71
2023/10/23 03:03:51;;;;;;;;;;;12.00;99.90;;;;;;5110560;28;20310;-71
2023/10/23 03:06:16;;;;;;;;;;;12.10;99.90;;;;;;5110593;28;20315;-71
2023/10/23 03:08:42;;;;;;;;;;;12.00;99.90;;;;;;5109838;28;19907;-71
2023/10/23 03:11:09;;;;;;;;;;;12.00;99.90;;;;;;5110723;28;20280;-71
2023/10/23 03:13:34;;;;;;;;;;;12.00;99.90;;;;;;5117121;27;20341;-71
2023/10/23 03:16:00;;;;;;;;;;;12.00;99.90;;;;;;5110359;28;19919;-71
2023/10/23 03:18:25;;;;;;;;;;;12.00;99.90;;;;;;5109451;28;19998;-71
2023/10/23 03:20:51;;;;;;;;;;;12.00;99.90;;;;;;5110443;28;19916;-71
2023/10/23 03:23:17;;;;;;;;;;;12.00;99.90;;;;;;5110169;28;19908;-71
2023/10/23 03:25:43;;;;;;;;;;;11.90;99.90;;;;;;5109931;28;19915;-70
2023/10/23 03:28:08;;;;;;;;;;;11.90;99.90;;;;;;5110073;28;19908;-70
2023/10/23 03:30:34;;;;;;;;;;;11.90;99.90;;;;;;5110121;28;19908;-70
2023/10/23 03:32:59;;;;;;;;;;;11.90;99.90;;;;;;5108722;28;19908;-70
2023/10/23 03:35:25;;;;;;;;;;;11.90;99.90;;;;;;5117369;27;19947;-70
2023/10/23 03:37:50;;;;;;;;;;;11.90;99.90;;;;;;5110201;28;19908;-70
2023/10/23 03:40:16;;;;;;;;;;;11.80;99.90;;;;;;5109711;28;19916;-70
2023/10/23 03:42:41;;;;;;;;;;;11.80;99.90;;;;;;5109661;28;19916;-70
2023/10/23 03:45:07;;;;;;;;;;;11.80;99.90;;;;;;5109957;28;19919;-70
2023/10/23 03:47:32;;;;;;;;;;;11.80;99.90;;;;;;5109757;28;20007;-70
2023/10/23 03:49:58;;;;;;;;;;;11.80;99.90;;;;;;5110051;28;19920;-70
2023/10/23 03:52:23;;;;;;;;;;;11.80;99.90;;;;;;5109924;28;20301;-70
2023/10/23 03:54:49;;;;;;;;;;;11.80;99.90;;;;;;5113836;27;19917;-70
2023/10/23 03:57:14;;;;;;;;;;;11.80;99.90;;;;;;5109956;28;19943;-70
2023/10/23 03:59:43;;;;;;;;;;;11.70;99.90;;;;;;5107846;28;19916;-70
2023/10/23 04:02:08;;;;;;;;;;;11.70;99.90;;;;;;5109898;28;20352;-70
2023/10/23 04:04:34;;;;;;;;;;;11.70;99.90;;;;;;5108074;28;19922;-70
2023/10/23 04:06:59;;;;;;;;;;;11.70;99.90;;;;;;5118140;27;19915;-70
2023/10/23 04:09:28;;;;;;;;;;;11.70;99.90;;;;;;5109233;28;20352;-70
2023/10/23 04:11:54;;;;;;;;;;;11.70;99.90;;;;;;5108356;28;20591;-70
2023/10/23 04:14:20;;;;;;;;;;;11.60;99.90;;;;;;5109585;28;19984;-70
2023/10/23 04:16:46;;;;;;;;;;;11.60;99.90;;;;;;5108402;28;20645;-70
2023/10/23 04:19:11;;;;;;;;;;;11.60;99.90;;;;;;5109637;28;19912;-70
2023/10/23 04:21:39;;;;;;;;;;;11.60;99.90;;;;;;5109391;28;19953;-70
2023/10/23 04:24:05;;;;;;;;;;;11.60;99.90;;;;;;5108342;28;19922;-70
2023/10/23 04:26:31;;;;;;;;;;;11.60;99.90;;;;;;5109633;28;19916;-70
2023/10/23 04:28:56;;;;;;;;;;;11.60;99.90;;;;;;5109496;28;19923;-70
2023/10/23 04:31:22;;;;;;;;;;;11.60;99.90;;;;;;5117854;27;19917;-70
2023/10/23 04:33:48;;;;;;;;;;;11.60;99.90;;;;;;5105092;28;19914;-70
2023/10/23 04:36:13;;;;;;;;;;;11.50;99.90;;;;;;5113202;28;19908;-70
2023/10/23 04:38:38;;;;;;;;;;;11.50;99.90;;;;;;5115964;27;19967;-70
2023/10/23 04:41:04;;;;;;;;;;;11.50;99.90;;;;;;5113098;28;20314;-70
2023/10/23 04:43:30;;;;;;;;;;;11.50;99.90;;;;;;5111560;28;19972;-70
2023/10/23 04:45:56;;;;;;;;;;;11.50;99.90;;;;;;5113283;28;19912;-70
2023/10/23 04:48:22;;;;;;;;;;;11.50;99.90;;;;;;5111520;28;19908;-70
2023/10/23 04:50:47;;;;;;;;;;;11.50;99.90;;;;;;5111160;28;19908;-70
2023/10/23 04:53:13;;;;;;;;;;;11.50;99.90;;;;;;5112964;28;19911;-70
2023/10/23 04:55:39;;;;;;;;;;;11.50;99.90;;;;;;5112764;28;19915;-70
2023/10/23 04:58:05;;;;;;;;;;;11.40;99.90;;;;;;5112431;28;19907;-70
2023/10/23 05:00:33;;;;;;;;;;;11.50;99.90;;;;;;5112348;28;19972;-70
2023/10/23 05:02:58;;;;;;;;;;;11.40;99.90;;;;;;5112897;28;19908;-70
2023/10/23 05:05:24;;;;;;;;;;;11.50;99.90;;;;;;5113353;27;19935;-70
2023/10/23 05:07:49;;;;;;;;;;;11.40;99.90;;;;;;5120737;27;20376;-70
2023/10/23 05:10:15;;;;;;;;;;;11.40;99.90;;;;;;5112275;28;19908;-70
2023/10/23 05:12:42;;;;;;;;;;;11.40;99.90;;;;;;5112396;28;19915;-70
2023/10/23 05:15:08;;;;;;;;;;;11.40;99.90;;;;;;5110908;28;19914;-70
2023/10/23 05:17:33;;;;;;;;;;;11.40;99.90;;;;;;5112043;28;19961;-70
2023/10/23 05:19:59;;;;;;;;;;;11.40;99.90;;;;;;5111875;28;19920;-70
2023/10/23 05:22:24;;;;;;;;;;;11.40;99.90;;;;;;5111939;28;19912;-70
2023/10/23 05:24:50;;;;;;;;;;;11.40;99.90;;;;;;5110365;28;19908;-70
2023/10/23 05:27:17;;;;;;;;;;;11.40;99.90;;;;;;5110383;28;19916;-70
2023/10/23 05:29:43;;;;;;;;;;;11.40;99.90;;;;;;5119750;27;19947;-70
2023/10/23 05:32:08;;;;;;;;;;;11.40;99.90;;;;;;5111694;28;19947;-70
2023/10/23 05:34:34;;;;;;;;;;;11.40;99.90;;;;;;5111710;28;19986;-70
2023/10/23 05:37:00;;;;;;;;;;;11.40;99.90;;;;;;5118671;27;19960;-70
2023/10/23 05:39:25;;;;;;;;;;;11.40;99.90;;;;;;5119498;27;19915;-70
2023/10/23 05:41:51;;;;;;;;;;;11.40;99.90;;;;;;5111196;28;19912;-70
2023/10/23 05:44:16;;;;;;;;;;;11.40;99.90;;;;;;5111439;28;19912;-70
2023/10/23 05:46:42;;;;;;;;;;;11.30;99.90;;;;;;5111366;27;19908;-70
2023/10/23 05:49:07;;;;;;;;;;;11.40;99.90;;;;;;5111187;28;20014;-70
2023/10/23 05:51:33;;;;;;;;;;;11.40;99.90;;;;;;5111271;27;20264;-70
2023/10/23 05:53:58;;;;;;;;;;;11.30;99.90;;;;;;5116838;27;19945;-70
2023/10/23 05:56:24;;;;;;;;;;;11.30;99.90;;;;;;5111422;28;19959;-70
2023/10/23 05:58:50;;;;;;;;;;;11.30;99.90;;;;;;5119436;27;19923;-70
2023/10/23 06:01:16;;;;;;;;;;;11.30;99.90;;;;;;5111655;28;19964;-70
2023/10/23 06:03:43;;;;;;;;;;;11.30;99.90;;;;;;5113520;27;21572;-70
2023/10/23 06:06:09;;;;;;;;;;;11.30;99.90;;;;;;5114330;27;19957;-70
2023/10/23 06:08:35;;;;;;;;;;;11.30;99.90;;;;;;5118914;27;20303;-70
2023/10/23 06:11:00;;;;;;;;;;;11.30;99.90;;;;;;5118160;27;19908;-70
2023/10/23 06:13:26;;;;;;;;;;;11.30;99.90;;;;;;5117741;27;19916;-70
2023/10/23 06:15:52;;;;;;;;;;;11.30;99.90;;;;;;5111013;28;19954;-70
2023/10/23 06:18:17;;;;;;;;;;;11.30;99.90;;;;;;5110592;28;19954;-70
2023/10/23 06:20:43;;;;;;;;;;;11.30;99.90;;;;;;5110688;28;20009;-70
2023/10/23 06:23:08;;;;;;;;;;;11.30;99.90;;;;;;5118964;27;20378;-70
2023/10/23 06:25:34;;;;;;;;;;;11.20;99.90;;;;;;5110981;27;20356;-70
2023/10/23 06:27:59;;;;;;;;;;;11.20;99.90;;;;;;5117817;27;19912;-70
2023/10/23 06:30:25;;;;;;;;;;;11.20;99.90;;;;;;5110855;28;19954;-70
2023/10/23 06:32:51;;;;;;;;;;;11.20;99.90;;;;;;5115013;27;19951;-70
2023/10/23 06:35:16;;;;;;;;;;;11.20;99.90;;;;;;5110709;27;19916;-70
2023/10/23 06:37:42;;;;;;;;;;;11.20;99.90;;;;;;5118877;27;19907;-70
2023/10/23 06:40:08;;;;;;;;;;;11.20;99.90;;;;;;5110868;28;19912;-70
2023/10/23 06:42:34;;;;;;;;;;;11.20;99.90;;;;;;5110342;28;20348;-70
2023/10/23 06:44:59;;;;;;;;;;;11.20;99.90;;;;;;5110661;28;19951;-70
2023/10/23 06:47:25;;;;;;;;;;;11.20;99.90;;;;;;5118886;27;19950;-70
2023/10/23 06:49:51;;;;;;;;;;;11.20;99.90;;;;;;5109314;28;19915;-70
2023/10/23 06:52:16;;;;;;;;;;;11.20;99.90;;;;;;5109869;28;19915;-70
2023/10/23 06:54:42;;;;;;;;;;;11.20;99.90;;;;;;5118735;27;20303;-70
2023/10/23 06:57:08;;;;;;;;;;;11.20;99.90;;;;;;5110644;28;19951;-70
2023/10/23 06:59:34;;;;;;;;;;;11.10;99.90;;;;;;5108615;28;20333;-70
2023/10/23 07:02:03;;;;;;;;;;;11.10;99.90;;;;;;5115561;27;19911;-70
2023/10/23 07:04:28;;;;;;;;;;;11.10;99.90;;;;;;5113642;27;19911;-70
2023/10/23 07:06:54;;;;;;;;;;;11.10;99.90;;;;;;5117997;27;19908;-70
2023/10/23 07:09:20;;;;;;;;;;;11.10;99.90;;;;;;5108501;28;19908;-70
2023/10/23 07:11:52;;;;;;;;;;;11.10;99.90;;;;;;5109898;28;19922;-70
2023/10/23 07:14:18;;;;;;;;;;;11.10;99.90;;;;;;5117469;27;20445;-70
2023/10/23 07:16:45;;;;;;;;;;;11.10;99.90;;;;;;5110870;27;20273;-70
2023/10/23 07:19:11;;;;;;;;;;;11.20;99.90;;;;;;5108438;28;20056;-70
2023/10/23 07:21:36;;;;;;;;;;;11.20;99.90;;;;;;5116983;27;20387;-70
2023/10/23 07:24:02;;;;;;;;;;;11.10;99.90;;;;;;5109985;28;20494;-70
2023/10/23 07:26:31;;;;;;;;;;;11.10;99.90;;;;;;5109890;28;19968;-70
2023/10/23 07:28:56;;;;;;;;;;;11.10;99.90;;;;;;5109918;28;19997;-70
2023/10/23 07:31:22;;;;;;;;;;;11.20;99.90;;;;;;5109827;28;20368;-70
2023/10/23 07:33:47;;;;;;;;;;;11.10;99.90;;;;;;5118001;27;19908;-70
2023/10/23 07:36:13;;;;;;;;;;;11.20;99.90;;;;;;5119913;27;20368;-70
2023/10/23 07:38:43;;;;;;;;;;;11.10;99.90;;;;;;5109026;28;19912;-70
2023/10/23 07:41:09;;;;;;;;;;;11.20;99.90;;;;;;5109735;28;19981;-70
2023/10/23 07:43:34;;;;;;;;;;;11.20;99.90;;;;;;5109632;28;19962;-70
2023/10/23 07:46:04;;;;;;;;;;;11.20;99.90;;;;;;5109370;28;19911;-70
2023/10/23 07:48:29;;;;;;;;;;;11.20;99.90;;;;;;5107954;28;19918;-70
2023/10/23 07:50:57;;;;;;;;;;;11.20;99.90;;;;;;5109329;28;19908;-70
2023/10/23 07:53:22;;;;;;;;;;;11.20;99.90;;;;;;5116679;28;19916;-70
2023/10/23 07:55:48;;;;;;;;;;;11.20;99.90;;;;;;5108774;28;19912;-70
2023/10/23 07:58:13;;;;;;;;;;;11.20;99.90;;;;;;5109091;28;19919;-70
2023/10/23 08:00:39;;;;;;;;;;;11.20;99.90;;;;;;5107300;28;19947;-70
2023/10/23 08:03:04;;;;;;;;;;;11.20;99.90;;;;;;5109154;28;20383;-70
2023/10/23 08:05:30;;;;;;;;;;;11.20;99.90;;;;;;5118384;27;20371;-70
2023/10/23 08:07:55;;;;;;;;;;;11.20;99.80;;;;;;5111625;28;19972;-70
2023/10/23 08:10:21;;;;;;;;;;;11.30;99.80;;;;;;5111917;28;19912;-70
2023/10/23 08:12:47;;;;;;;;;;;11.20;99.80;;;;;;5121400;27;19972;-70
2023/10/23 08:15:12;;;;;;;;;;;11.30;99.80;;;;;;5113237;28;19935;-70
2023/10/23 08:17:38;;;;;;;;;;;11.30;99.80;;;;;;5112637;28;20037;-70
2023/10/23 08:20:04;;;;;;;;;;;11.30;99.80;;;;;;5118514;27;19919;-70
2023/10/23 08:22:30;;;;;;;;;;;11.30;99.80;;;;;;5115633;27;19965;-70
2023/10/23 08:24:55;;;;;;;;;;;11.30;99.80;;;;;;5117058;27;19907;-70
2023/10/23 08:27:21;;;;;;;;;;;11.30;99.80;;;;;;5115590;27;20533;-70
2023/10/23 08:29:46;;;;;;;;;;;11.40;99.80;;;;;;5112432;28;19998;-70
2023/10/23 08:32:12;;;;;;;;;;;11.40;99.80;;;;;;5110207;28;20024;-70
2023/10/23 08:34:38;;;;;;;;;;;11.40;99.80;;;;;;5114168;27;19915;-70
2023/10/23 08:37:03;;;;;;;;;;;11.30;99.80;;;;;;5120553;27;19911;-70
2023/10/23 08:39:29;;;;;;;;;;;11.40;99.90;;;;;;5119651;27;19916;-70
2023/10/23 08:41:55;;;;;;;;;;;11.40;99.80;;;;;;5118995;27;19958;-70
2023/10/23 08:44:21;;;;;;;;;;;11.40;99.80;;;;;;5098069;28;19912;-70
2023/10/23 08:46:47;;;;;;;;;;;11.40;99.80;;;;;;5117508;27;19916;-70
2023/10/23 08:49:13;;;;;;;;;;;11.40;99.80;;;;;;5117448;27;19911;-70
2023/10/23 08:51:39;;;;;;;;;;;11.50;99.80;;;;;;5112694;27;19915;-70
2023/10/23 08:54:12;;;;;;;;;;;11.50;99.80;;;;;;5113231;27;20261;-70
2023/10/23 08:56:38;;;;;;;;;;;11.50;99.70;;;;;;5127993;27;19907;-70
2023/10/23 08:59:04;;;;;;;;;;;11.50;99.70;;;;;;5114288;27;19919;-70
2023/10/23 09:01:30;;;;;;;;;;;11.50;99.60;;;;;;5113853;27;19912;-70
2023/10/23 09:03:56;;;;;;;;;;;11.60;99.60;;;;;;5110939;28;19912;-70
2023/10/23 09:06:21;;;;;;;;;;;11.60;99.60;;;;;;5108853;27;19919;-70
2023/10/23 09:08:47;;;;;;;;;;;11.60;99.50;;;;;;5112539;27;19923;-70
2023/10/23 09:11:12;;;;;;;;;;;11.60;99.50;;;;;;5116437;27;19927;-70
2023/10/23 09:13:39;;;;;;;;;;;11.70;99.50;;;;;;5102981;27;20018;-70
2023/10/23 09:16:05;;;;;;;;;;;11.70;99.50;;;;;;5110243;28;19920;-70
2023/10/23 09:18:31;;;;;;;;;;;11.70;99.50;;;;;;5119234;27;19908;-70
2023/10/23 09:20:57;;;;;;;;;;;11.80;99.50;;;;;;5118611;27;19984;-70
2023/10/23 09:23:23;;;;;;;;;;;11.80;99.50;;;;;;5102567;27;20408;-70
2023/10/23 09:25:49;;;;;;;;;;;11.80;99.50;;;;;;5110285;28;19912;-70
2023/10/23 09:28:14;;;;;;;;;;;11.80;99.40;;;;;;5118898;27;19947;-70
2023/10/23 09:30:41;;;;;;;;;;;11.80;99.40;;;;;;5110573;27;20028;-70
2023/10/23 09:33:08;;;;;;;;;;;11.80;99.30;;;;;;5103676;27;19951;-70
2023/10/23 09:35:33;;;;;;;;;;;11.90;99.30;;;;;;5115512;27;19972;-70
2023/10/23 09:37:59;;;;;;;;;;;11.90;99.30;;;;;;5105473;28;19920;-70
2023/10/23 09:40:24;;;;;;;;;;;11.90;99.30;;;;;;5098144;28;19916;-70
2023/10/23 09:42:50;;;;;;;;;;;11.90;99.30;;;;;;5117920;27;19915;-70
2023/10/23 09:45:16;;;;;;;;;;;12.00;99.30;;;;;;5118872;27;20420;-70
2023/10/23 09:47:42;;;;;;;;;;;12.00;99.30;;;;;;5109387;28;20053;-70
2023/10/23 09:50:08;;;;;;;;;;;12.00;99.20;;;;;;5118702;27;19915;-70
2023/10/23 09:52:35;;;;;;;;;;;12.10;99.20;;;;;;5110779;27;19971;-70
2023/10/23 09:55:03;;;;;;;;;;;12.10;99.20;;;;;;5106611;27;19911;-70
2023/10/23 09:57:31;;;;;;;;;;;12.10;99.10;;;;;;5099691;28;19912;-70
2023/10/23 09:59:59;;;;;;;;;;;12.20;99.20;;;;;;5129410;27;20559;-70
2023/10/23 10:02:27;;;;;;;;;;;12.20;99.10;;;;;;5113913;27;19930;-70
2023/10/23 10:04:59;;;;;;;;;;;12.20;99.10;;;;;;5109353;27;20280;-70
2023/10/23 10:07:43;;;;;;;;;;;12.20;99.10;;;;;;5108312;28;19915;-70
2023/10/23 10:10:10;;;;;;;;;;;12.30;99.10;;;;;;5103521;28;19919;-70
2023/10/23 10:12:38;;;;;;;;;;;12.30;99.00;;;;;;5110793;27;19940;-70
2023/10/23 10:15:08;;;;;;;;;;;12.30;98.90;;;;;;5116906;27;19919;-70
2023/10/23 10:17:35;;;;;;;;;;;12.40;98.90;;;;;;5118540;27;19939;-70
2023/10/23 10:20:02;;;;;;;;;;;12.40;98.80;;;;;;5108571;27;19919;-70
2023/10/23 10:22:30;;;;;;;;;;;12.50;98.80;;;;;;5101496;28;19912;-70
2023/10/23 10:24:56;;;;;;;;;;;12.50;98.70;;;;;;5101830;28;19951;-70
2023/10/23 10:27:22;;;;;;;;;;;12.50;99.00;;;;;;5099562;28;19922;-70
2023/10/23 10:29:47;;;;;;;;;;;12.60;98.90;;;;;;5108857;28;19915;-70
2023/10/23 10:32:13;;;;;;;;;;;12.60;98.60;;;;;;5109144;28;20045;-70
2023/10/23 10:34:50;;;;;;;;;;;12.60;98.50;;;;;;5107620;27;19968;-70
2023/10/23 10:37:16;;;;;;;;;;;12.70;98.50;;;;;;5116034;27;19914;-70
2023/10/23 10:39:53;;;;;;;;;;;12.80;98.80;;;;;;5108913;27;19916;-70
2023/10/23 10:42:23;;;;;;;;;;;12.80;98.40;;;;;;5122698;27;19923;-70
2023/10/23 10:44:52;;;;;;;;;;;12.90;98.40;;;;;;5108379;28;20369;-70
2023/10/23 10:47:18;;;;;;;;;;;12.90;98.40;;;;;;5102419;28;19912;-70
2023/10/23 10:49:47;;;;;;;;;;;12.90;98.40;;;;;;5105055;27;19907;-70
2023/10/23 10:52:26;;;;;;;;;;;13.00;98.70;;;;;;5109031;28;20202;-70
2023/10/23 10:54:53;;;;;;;;;;;13.00;98.20;;;;;;5106579;27;19911;-70
2023/10/23 10:57:20;;;;;;;;;;;13.10;98.10;;;;;;5115943;27;19908;-70
2023/10/23 10:59:45;;;;;;;;;;;13.20;98.20;;;;;;5105928;28;19916;-70
2023/10/23 11:02:11;;;;;;;;;;;13.20;98.10;;;;;;5111480;27;20451;-70
2023/10/23 11:04:36;;;;;;;;;;;13.20;98.10;;;;;;5111812;27;19943;-70
2023/10/23 11:07:02;;;;;;;;;;;13.20;98.10;;;;;;5124696;27;19994;-70
2023/10/23 11:09:28;;;;;;;;;;;13.30;98.20;;;;;;5108772;28;19912;-70
2023/10/23 11:11:56;;;;;;;;;;;13.30;98.20;;;;;;5098289;27;19923;-71
2023/10/23 11:14:24;;;;;;;;;;;13.40;98.10;;;;;;5104172;28;19912;-70
2023/10/23 11:16:50;;;;;;;;;;;13.40;98.10;;;;;;5100403;28;19918;-70
2023/10/23 11:19:16;;;;;;;;;;;13.40;98.00;;;;;;5108688;28;20023;-70
2023/10/23 11:21:41;;;;;;;;;;;13.50;97.90;;;;;;5099987;27;19947;-70
2023/10/23 11:24:07;;;;;;;;;;;13.50;98.20;;;;;;5101617;28;19912;-70
2023/10/23 11:26:32;;;;;;;;;;;13.50;98.30;;;;;;5104848;28;19908;-70
2023/10/23 11:28:58;;;;;;;;;;;13.60;98.20;;;;;;5091940;28;19918;-70
2023/10/23 11:31:23;;;;;;;;;;;13.60;98.10;;;;;;5099805;28;19918;-70
2023/10/23 11:33:54;;;;;;;;;;;13.60;97.80;;;;;;5105248;27;19916;-70
2023/10/23 11:36:21;;;;;;;;;;;13.70;97.80;;;;;;5105336;28;19947;-70
2023/10/23 11:38:47;;;;;;;;;;;13.70;97.80;;;;;;5106921;28;19916;-70
2023/10/23 11:41:13;;;;;;;;;;;13.70;97.80;;;;;;5099659;28;19916;-70
2023/10/23 11:43:38;;;;;;;;;;;13.80;98.20;;;;;;5108714;28;20497;-70
2023/10/23 11:46:07;;;;;;;;;;;13.70;98.00;;;;;;5114855;27;19912;-70
2023/10/23 11:48:32;;;;;;;;;;;13.80;97.90;;;;;;5099038;28;19908;-70
2023/10/23 11:50:59;;;;;;;;;;;13.80;97.90;;;;;;5107915;28;19946;-70
2023/10/23 11:53:26;;;;;;;;;;;13.80;97.90;;;;;;5111310;27;20004;-70
2023/10/23 11:55:51;;;;;;;;;;;13.90;97.70;;;;;;5107228;28;20026;-70
2023/10/23 11:58:27;;;;;;;;;;;13.90;97.80;;;;;;5122302;27;20037;-70
2023/10/23 12:00:52;;;;;;;;;;;13.90;97.60;;;;;;5109828;27;19915;-70
2023/10/23 12:03:18;;;;;;;;;;;13.90;97.60;;;;;;5116048;27;20484;-70
2023/10/23 12:05:43;;;;;;;;;;;14.00;97.70;;;;;;5115038;27;19911;-70
2023/10/23 12:08:09;;;;;;;;;;;14.00;97.70;;;;;;5100940;28;20556;-70
2023/10/23 12:10:37;;;;;;;;;;;14.00;97.60;;;;;;5106981;28;19958;-70
2023/10/23 12:13:03;;;;;;;;;;;14.00;97.70;;;;;;5099820;28;19960;-70
2023/10/23 12:15:29;;;;;;;;;;;14.00;97.70;;;;;;5099040;28;20389;-70
2023/10/23 12:18:02;;;;;;;;;;;14.00;97.80;;;;;;5123645;27;20005;-70
2023/10/23 12:20:29;;;;;;;;;;;14.10;97.70;;;;;;5107353;28;19943;-70
2023/10/23 12:22:55;;;;;;;;;;;14.10;97.70;;;;;;5117958;28;19931;-70
2023/10/23 12:25:20;;;;;;;;;;;14.10;97.60;;;;;;5103097;27;20292;-70
2023/10/23 12:27:46;;;;;;;;;;;14.10;97.80;;;;;;5106724;28;20264;-70
2023/10/23 12:30:12;;;;;;;;;;;14.20;97.70;;;;;;5092508;28;19912;-70
2023/10/23 12:32:40;;;;;;;;;;;14.20;97.60;;;;;;5094424;28;20373;-70
2023/10/23 12:35:07;;;;;;;;;;;14.20;97.60;;;;;;5098434;28;19911;-70
2023/10/23 12:37:34;;;;;;;;;;;14.20;97.70;;;;;;5106320;28;19908;-70
2023/10/23 12:40:02;;;;;;;;;;;14.20;97.60;;;;;;5102346;28;20268;-70
2023/10/23 12:42:31;;;;;;;;;;;14.20;97.70;;;;;;5111106;27;19918;-70
2023/10/23 12:44:56;;;;;;;;;;;14.20;97.60;;;;;;5098713;28;19923;-70
2023/10/23 12:47:22;;;;;;;;;;;14.20;97.80;;;;;;5098206;28;19912;-70
2023/10/23 12:49:48;;;;;;;;;;;14.30;97.70;;;;;;5105360;28;20610;-70
2023/10/23 12:52:14;;;;;;;;;;;14.30;97.70;;;;;;5106614;27;19945;-70
2023/10/23 12:54:39;;;;;;;;;;;14.30;97.90;;;;;;5108188;27;19911;-70
2023/10/23 12:57:05;;;;;;;;;;;14.30;97.80;;;;;;5104067;27;19919;-70
2023/10/23 12:59:31;;;;;;;;;;;14.30;97.70;;;;;;5101651;28;20330;-70
2023/10/23 13:01:56;;;;;;;;;;;14.30;97.70;;;;;;5105155;27;20011;-70
2023/10/23 13:04:22;;;;;;;;;;;14.30;97.60;;;;;;5119041;27;19918;-70
2023/10/23 13:06:48;;;;;;;;;;;14.30;97.70;;;;;;5117360;27;20026;-70
2023/10/23 13:09:15;;;;;;;;;;;14.30;97.70;;;;;;5110662;28;19957;-70
2023/10/23 13:11:40;;;;;;;;;;;14.40;97.70;;;;;;5110260;28;19919;-70
2023/10/23 13:14:06;;;;;;;;;;;14.40;97.90;;;;;;5116040;27;19912;-70
2023/10/23 13:16:31;;;;;;;;;;;14.40;97.60;;;;;;5113637;27;19962;-70
2023/10/23 13:18:57;;;;;;;;;;;14.40;97.70;;;;;;5117250;27;20374;-70
2023/10/23 13:21:23;;;;;;;;;;;14.40;97.60;;;;;;5126308;27;19922;-70
2023/10/23 13:23:48;;;;;;;;;;;14.40;97.60;;;;;;5109326;27;19918;-70
2023/10/23 13:26:14;;;;;;;;;;;14.50;97.70;;;;;;5108321;28;19946;-70
2023/10/23 13:28:39;;;;;;;;;;;14.50;97.70;;;;;;5109445;27;19994;-70
2023/10/23 13:31:05;;;;;;;;;;;14.40;97.60;;;;;;5109794;28;19999;-70
2023/10/23 13:33:30;;;;;;;;;;;14.50;97.60;;;;;;5110478;27;19914;-70
2023/10/23 13:35:56;;;;;;;;;;;14.50;97.70;;;;;;5118713;27;20006;-70
2023/10/23 13:38:22;;;;;;;;;;;14.50;97.60;;;;;;5110327;28;20365;-70
2023/10/23 13:40:47;;;;;;;;;;;14.50;97.60;;;;;;5109811;28;19918;-70
2023/10/23 13:43:13;;;;;;;;;;;14.50;97.70;;;;;;5110196;28;19939;-70
2023/10/23 13:45:38;;;;;;;;;;;14.50;97.70;;;;;;5109721;28;19980;-70
2023/10/23 13:48:04;;;;;;;;;;;14.50;97.60;;;;;;5118380;27;20409;-70
2023/10/23 13:50:30;;;;;;;;;;;14.50;97.60;;;;;;5110244;28;19911;-70
2023/10/23 13:52:55;;;;;;;;;;;14.50;97.70;;;;;;5108719;28;19999;-70
2023/10/23 13:55:21;;;;;;;;;;;14.50;97.60;;;;;;5103392;28;20301;-70
2023/10/23 13:57:46;;;;;;;;;;;14.60;97.70;;;;;;5103260;28;19920;-70
2023/10/23 14:00:12;;;;;;;;;;;14.50;97.90;;;;;;5117781;27;19951;-70
2023/10/23 14:02:38;;;;;;;;;;;14.50;97.70;;;;;;5109979;27;19922;-70
2023/10/23 14:05:06;;;;;;;;;;;14.50;97.70;;;;;;5121889;27;19994;-70
2023/10/23 14:07:32;;;;;;;;;;;14.60;97.80;;;;;;5108957;27;19912;-70
2023/10/23 14:09:58;;;;;;;;;;;14.60;97.70;;;;;;5110367;27;20367;-70